Porto de Moz, Brazil
Current Conditions -  °F | °C
As of 7:00 PM on Wednesday 22 Oct 2014 (Local Time) from SBHT Reporting Station
Scattered Clouds Scattered Clouds  
Wind Chill: 79°   Ceiling: Unl
Heat Index: 83°   Visibility: 6mi
Dew Point: 77°   Wind: 0mph
Humidity: 94%   Direction: NA
Pressure: 29.83"   Gusts: NA
Location:  1.74°S, 52.24°W
Report Text: SBHT 222200Z 00000KT 9999 SCT020 SCT100 26/25 Q1010
Loading
Personal Weather Stations






























Interactive Weather Map
Tropical Storm Tracking
New forecast layout! Learn more

10-Day Weather Forecast

Advertisements
Track Severe Weather on mobile